sensor_id;sensor_type;location;lat;lon;timestamp;pressure;altitude;pressure_sealevel;temperature;humidity
72961;BME280;61141;46.204;19.774;2023-04-22T00:02:03;100168.69;;;11.20;68.84
72961;BME280;61141;46.204;19.774;2023-04-22T00:05:07;100175.47;;;10.93;68.80
72961;BME280;61141;46.204;19.774;2023-04-22T00:08:10;100169.28;;;11.03;70.18
72961;BME280;61141;46.204;19.774;2023-04-22T00:11:13;100181.59;;;10.83;69.71
72961;BME280;61141;46.204;19.774;2023-04-22T00:14:16;100165.16;;;10.83;69.38
72961;BME280;61141;46.204;19.774;2023-04-22T00:17:19;100170.09;;;10.71;70.39
72961;BME280;61141;46.204;19.774;2023-04-22T00:20:21;100174.22;;;10.54;71.48
72961;BME280;61141;46.204;19.774;2023-04-22T00:23:24;100174.12;;;10.47;70.35
72961;BME280;61141;46.204;19.774;2023-04-22T00:26:27;100173.75;;;10.48;69.95
72961;BME280;61141;46.204;19.774;2023-04-22T00:29:30;100175.78;;;10.25;69.35
72961;BME280;61141;46.204;19.774;2023-04-22T00:32:33;100172.97;;;10.18;71.11
72961;BME280;61141;46.204;19.774;2023-04-22T00:35:36;100174.50;;;10.16;71.24
72961;BME280;61141;46.204;19.774;2023-04-22T00:38:40;100157.28;;;10.15;72.01
72961;BME280;61141;46.204;19.774;2023-04-22T00:41:45;100172.00;;;10.07;70.78
72961;BME280;61141;46.204;19.774;2023-04-22T00:44:50;100172.34;;;10.02;72.09
72961;BME280;61141;46.204;19.774;2023-04-22T00:47:53;100174.59;;;9.96;71.98
72961;BME280;61141;46.204;19.774;2023-04-22T00:50:58;100162.37;;;9.90;71.81
72961;BME280;61141;46.204;19.774;2023-04-22T00:54:01;100174.88;;;9.91;72.11
72961;BME280;61141;46.204;19.774;2023-04-22T00:57:05;100153.56;;;9.74;71.77
72961;BME280;61141;46.204;19.774;2023-04-22T01:00:09;100170.94;;;9.89;72.30
72961;BME280;61141;46.204;19.774;2023-04-22T01:03:13;100178.00;;;9.90;71.83
72961;BME280;61141;46.204;19.774;2023-04-22T01:06:18;100178.53;;;9.73;72.56
72961;BME280;61141;46.204;19.774;2023-04-22T01:09:22;100179.03;;;9.56;72.89
72961;BME280;61141;46.204;19.774;2023-04-22T01:12:25;100164.66;;;9.36;73.08
72961;BME280;61141;46.204;19.774;2023-04-22T01:15:28;100173.63;;;9.36;73.12
72961;BME280;61141;46.204;19.774;2023-04-22T01:18:31;100172.72;;;9.29;73.59
72961;BME280;61141;46.204;19.774;2023-04-22T01:21:34;100179.53;;;9.16;73.29
72961;BME280;61141;46.204;19.774;2023-04-22T01:24:37;100177.22;;;9.18;72.94
72961;BME280;61141;46.204;19.774;2023-04-22T01:27:40;100177.16;;;9.14;73.27
72961;BME280;61141;46.204;19.774;2023-04-22T01:30:43;100186.03;;;9.08;73.56
72961;BME280;61141;46.204;19.774;2023-04-22T01:33:46;100182.13;;;9.09;73.05
72961;BME280;61141;46.204;19.774;2023-04-22T01:36:50;100174.31;;;9.07;72.84
72961;BME280;61141;46.204;19.774;2023-04-22T01:39:53;100174.31;;;9.07;74.86
72961;BME280;61141;46.204;19.774;2023-04-22T01:43:00;100186.69;;;8.82;74.03
72961;BME280;61141;46.204;19.774;2023-04-22T01:46:03;100181.25;;;8.63;73.60
72961;BME280;61141;46.204;19.774;2023-04-22T01:49:08;100178.44;;;8.78;73.71
72961;BME280;61141;46.204;19.774;2023-04-22T01:52:10;100188.78;;;8.89;74.95
72961;BME280;61141;46.204;19.774;2023-04-22T01:55:14;100178.38;;;8.75;74.06
72961;BME280;61141;46.204;19.774;2023-04-22T01:58:17;100182.97;;;8.71;75.20
72961;BME280;61141;46.204;19.774;2023-04-22T02:01:20;100188.44;;;8.71;74.83
72961;BME280;61141;46.204;19.774;2023-04-22T02:04:23;100177.94;;;8.54;74.76
72961;BME280;61141;46.204;19.774;2023-04-22T02:07:26;100191.16;;;8.52;75.37
72961;BME280;61141;46.204;19.774;2023-04-22T02:10:29;100185.50;;;8.60;75.43
72961;BME280;61141;46.204;19.774;2023-04-22T02:13:39;100184.28;;;8.58;75.53
72961;BME280;61141;46.204;19.774;2023-04-22T02:16:42;100188.66;;;8.43;76.39
72961;BME280;61141;46.204;19.774;2023-04-22T02:19:46;100188.66;;;8.43;76.45
72961;BME280;61141;46.204;19.774;2023-04-22T02:22:48;100190.75;;;8.69;76.13
72961;BME280;61141;46.204;19.774;2023-04-22T02:25:54;100168.41;;;8.44;75.67
72961;BME280;61141;46.204;19.774;2023-04-22T02:28:57;100181.75;;;8.49;76.17
72961;BME280;61141;46.204;19.774;2023-04-22T02:32:01;100181.84;;;8.53;77.77
72961;BME280;61141;46.204;19.774;2023-04-22T02:35:03;100179.31;;;8.44;77.70
72961;BME280;61141;46.204;19.774;2023-04-22T02:38:07;100183.06;;;8.36;76.19
72961;BME280;61141;46.204;19.774;2023-04-22T02:41:09;100178.91;;;8.61;76.40
72961;BME280;61141;46.204;19.774;2023-04-22T02:44:12;100177.38;;;8.64;77.23
72961;BME280;61141;46.204;19.774;2023-04-22T02:47:16;100178.59;;;8.66;74.59
72961;BME280;61141;46.204;19.774;2023-04-22T02:50:20;100180.53;;;8.66;76.08
72961;BME280;61141;46.204;19.774;2023-04-22T02:53:23;100154.88;;;8.51;74.61
72961;BME280;61141;46.204;19.774;2023-04-22T02:56:26;100182.06;;;8.63;75.02
72961;BME280;61141;46.204;19.774;2023-04-22T02:59:30;100178.31;;;8.33;74.81
72961;BME280;61141;46.204;19.774;2023-04-22T03:02:33;100179.37;;;8.28;74.99
72961;BME280;61141;46.204;19.774;2023-04-22T03:05:39;100181.12;;;8.21;75.73
72961;BME280;61141;46.204;19.774;2023-04-22T03:08:42;100181.81;;;7.99;76.30
72961;BME280;61141;46.204;19.774;2023-04-22T03:11:45;100182.41;;;8.08;76.32
72961;BME280;61141;46.204;19.774;2023-04-22T03:14:48;100186.44;;;8.14;75.77
72961;BME280;61141;46.204;19.774;2023-04-22T03:17:51;100184.72;;;8.06;75.43
72961;BME280;61141;46.204;19.774;2023-04-22T03:20:54;100187.44;;;8.06;76.06
72961;BME280;61141;46.204;19.774;2023-04-22T03:23:58;100194.41;;;7.88;77.11
72961;BME280;61141;46.204;19.774;2023-04-22T03:27:02;100172.25;;;7.74;77.56
72961;BME280;61141;46.204;19.774;2023-04-22T03:30:05;100193.47;;;7.80;78.27
72961;BME280;61141;46.204;19.774;2023-04-22T03:33:10;100191.28;;;7.70;78.91
72961;BME280;61141;46.204;19.774;2023-04-22T03:36:14;100193.13;;;7.66;79.00
72961;BME280;61141;46.204;19.774;2023-04-22T03:39:17;100198.47;;;7.62;78.98
72961;BME280;61141;46.204;19.774;2023-04-22T03:42:20;100189.69;;;7.69;80.09
72961;BME280;61141;46.204;19.774;2023-04-22T03:45:23;100181.88;;;7.67;80.40
72961;BME280;61141;46.204;19.774;2023-04-22T03:48:27;100199.00;;;7.68;79.82
72961;BME280;61141;46.204;19.774;2023-04-22T03:51:31;100202.19;;;7.54;78.87
72961;BME280;61141;46.204;19.774;2023-04-22T03:54:35;100199.13;;;7.56;79.20
72961;BME280;61141;46.204;19.774;2023-04-22T03:57:39;100183.66;;;7.44;78.13
72961;BME280;61141;46.204;19.774;2023-04-22T04:00:44;100199.59;;;7.93;77.90
72961;BME280;61141;46.204;19.774;2023-04-22T04:03:48;100206.72;;;7.82;78.32
72961;BME280;61141;46.204;19.774;2023-04-22T04:06:52;100203.94;;;7.62;77.05
72961;BME280;61141;46.204;19.774;2023-04-22T04:09:55;100212.66;;;7.52;77.40
72961;BME280;61141;46.204;19.774;2023-04-22T04:12:58;100208.34;;;7.51;77.12
72961;BME280;61141;46.204;19.774;2023-04-22T04:16:01;100217.31;;;8.34;80.38
72961;BME280;61141;46.204;19.774;2023-04-22T04:19:06;100213.91;;;8.05;77.24
72961;BME280;61141;46.204;19.774;2023-04-22T04:22:10;100217.69;;;8.16;77.76
72961;BME280;61141;46.204;19.774;2023-04-22T04:25:13;100218.56;;;8.55;76.10
72961;BME280;61141;46.204;19.774;2023-04-22T04:28:18;100217.38;;;8.75;76.25
72961;BME280;61141;46.204;19.774;2023-04-22T04:31:21;100218.81;;;8.31;76.24
72961;BME280;61141;46.204;19.774;2023-04-22T04:34:27;100227.19;;;8.22;76.16
72961;BME280;61141;46.204;19.774;2023-04-22T04:37:31;100236.94;;;8.23;76.86
72961;BME280;61141;46.204;19.774;2023-04-22T04:40:34;100233.59;;;8.30;78.29
72961;BME280;61141;46.204;19.774;2023-04-22T04:43:39;100237.16;;;8.50;78.32
72961;BME280;61141;46.204;19.774;2023-04-22T04:46:43;100238.47;;;8.56;77.27
72961;BME280;61141;46.204;19.774;2023-04-22T04:49:49;100240.97;;;8.83;77.43
72961;BME280;61141;46.204;19.774;2023-04-22T04:52:54;100244.84;;;8.82;76.69
72961;BME280;61141;46.204;19.774;2023-04-22T04:55:58;100248.16;;;9.11;76.41
72961;BME280;61141;46.204;19.774;2023-04-22T04:59:01;100248.59;;;9.35;76.79
72961;BME280;61141;46.204;19.774;2023-04-22T05:02:06;100230.31;;;9.39;75.27
72961;BME280;61141;46.204;19.774;2023-04-22T05:05:09;100236.94;;;9.61;75.53
72961;BME280;61141;46.204;19.774;2023-04-22T05:08:13;100248.62;;;10.07;69.08
72961;BME280;61141;46.204;19.774;2023-04-22T05:11:17;100246.16;;;10.51;69.20
72961;BME280;61141;46.204;19.774;2023-04-22T05:14:20;100245.47;;;10.91;70.05
72961;BME280;61141;46.204;19.774;2023-04-22T05:17:23;100248.03;;;11.06;61.36
72961;BME280;61141;46.204;19.774;2023-04-22T05:20:27;100249.56;;;11.41;60.89
72961;BME280;61141;46.204;19.774;2023-04-22T05:23:30;100244.69;;;12.08;58.96
72961;BME280;61141;46.204;19.774;2023-04-22T05:26:34;100243.16;;;12.14;57.73
72961;BME280;61141;46.204;19.774;2023-04-22T05:29:39;100242.28;;;12.03;56.02
72961;BME280;61141;46.204;19.774;2023-04-22T05:32:43;100245.34;;;12.52;57.56
72961;BME280;61141;46.204;19.774;2023-04-22T05:35:46;100241.63;;;12.92;56.77
72961;BME280;61141;46.204;19.774;2023-04-22T05:38:49;100251.78;;;12.84;54.94
72961;BME280;61141;46.204;19.774;2023-04-22T05:41:52;100242.84;;;13.05;54.87
72961;BME280;61141;46.204;19.774;2023-04-22T05:44:56;100256.69;;;13.30;54.23
72961;BME280;61141;46.204;19.774;2023-04-22T05:47:59;100255.53;;;13.59;53.36
72961;BME280;61141;46.204;19.774;2023-04-22T05:51:04;100253.94;;;13.40;53.33
72961;BME280;61141;46.204;19.774;2023-04-22T05:54:08;100258.34;;;13.80;52.49
72961;BME280;61141;46.204;19.774;2023-04-22T05:57:10;100261.41;;;13.33;51.08
72961;BME280;61141;46.204;19.774;2023-04-22T06:00:15;100267.37;;;14.02;52.72
72961;BME280;61141;46.204;19.774;2023-04-22T06:03:19;100260.28;;;14.19;53.16
72961;BME280;61141;46.204;19.774;2023-04-22T06:06:22;100252.41;;;13.61;51.32
72961;BME280;61141;46.204;19.774;2023-04-22T06:09:25;100262.22;;;14.39;52.00
72961;BME280;61141;46.204;19.774;2023-04-22T06:12:28;100264.22;;;14.18;50.92
72961;BME280;61141;46.204;19.774;2023-04-22T06:15:33;100258.31;;;14.19;50.43
72961;BME280;61141;46.204;19.774;2023-04-22T06:18:36;100277.59;;;14.44;51.71
72961;BME280;61141;46.204;19.774;2023-04-22T06:21:40;100276.78;;;14.50;49.38
72961;BME280;61141;46.204;19.774;2023-04-22T06:24:44;100267.31;;;14.65;49.55
72961;BME280;61141;46.204;19.774;2023-04-22T06:27:50;100276.97;;;15.09;49.99
72961;BME280;61141;46.204;19.774;2023-04-22T06:30:55;100280.06;;;15.25;48.96
72961;BME280;61141;46.204;19.774;2023-04-22T06:33:58;100283.69;;;15.08;47.90
72961;BME280;61141;46.204;19.774;2023-04-22T06:37:01;100290.22;;;15.49;47.32
72961;BME280;61141;46.204;19.774;2023-04-22T06:40:05;100287.09;;;15.40;47.73
72961;BME280;61141;46.204;19.774;2023-04-22T06:43:10;100295.25;;;15.61;47.19
72961;BME280;61141;46.204;19.774;2023-04-22T06:46:15;100293.84;;;15.32;46.66
72961;BME280;61141;46.204;19.774;2023-04-22T06:49:22;100283.16;;;15.34;47.42
72961;BME280;61141;46.204;19.774;2023-04-22T06:52:30;100279.41;;;15.72;46.50
72961;BME280;61141;46.204;19.774;2023-04-22T06:55:33;100279.22;;;15.94;46.17
72961;BME280;61141;46.204;19.774;2023-04-22T06:58:36;100289.94;;;16.36;44.47
72961;BME280;61141;46.204;19.774;2023-04-22T07:01:39;100281.13;;;16.85;44.42
72961;BME280;61141;46.204;19.774;2023-04-22T07:04:43;100288.13;;;16.97;44.11
72961;BME280;61141;46.204;19.774;2023-04-22T07:07:46;100297.28;;;16.90;43.94
72961;BME280;61141;46.204;19.774;2023-04-22T07:10:50;100294.34;;;16.71;42.89
72961;BME280;61141;46.204;19.774;2023-04-22T07:13:55;100288.91;;;16.60;41.66
72961;BME280;61141;46.204;19.774;2023-04-22T07:16:59;100295.31;;;16.54;42.58
72961;BME280;61141;46.204;19.774;2023-04-22T07:20:03;100299.94;;;16.64;42.54
72961;BME280;61141;46.204;19.774;2023-04-22T07:23:06;100299.47;;;17.67;41.65
72961;BME280;61141;46.204;19.774;2023-04-22T07:26:09;100287.66;;;17.02;40.21
72961;BME280;61141;46.204;19.774;2023-04-22T07:29:12;100298.44;;;17.23;41.18
72961;BME280;61141;46.204;19.774;2023-04-22T07:32:15;100300.41;;;17.56;40.69
72961;BME280;61141;46.204;19.774;2023-04-22T07:35:19;100312.69;;;17.25;39.51
72961;BME280;61141;46.204;19.774;2023-04-22T07:38:21;100303.88;;;17.64;40.76
72961;BME280;61141;46.204;19.774;2023-04-22T07:41:25;100307.75;;;17.70;40.48
72961;BME280;61141;46.204;19.774;2023-04-22T07:44:28;100306.06;;;18.03;40.29
72961;BME280;61141;46.204;19.774;2023-04-22T07:47:31;100309.66;;;18.00;39.66
72961;BME280;61141;46.204;19.774;2023-04-22T07:50:34;100310.97;;;17.92;39.02
72961;BME280;61141;46.204;19.774;2023-04-22T07:53:40;100300.44;;;18.06;40.15
72961;BME280;61141;46.204;19.774;2023-04-22T07:56:43;100308.09;;;17.99;38.63
72961;BME280;61141;46.204;19.774;2023-04-22T07:59:46;100312.63;;;18.12;38.94
72961;BME280;61141;46.204;19.774;2023-04-22T08:02:49;100304.91;;;18.47;39.66
72961;BME280;61141;46.204;19.774;2023-04-22T08:05:53;100305.63;;;18.04;37.80
72961;BME280;61141;46.204;19.774;2023-04-22T08:08:59;100289.84;;;18.25;39.26
72961;BME280;61141;46.204;19.774;2023-04-22T08:12:02;100304.06;;;18.27;37.10
72961;BME280;61141;46.204;19.774;2023-04-22T08:15:06;100307.44;;;18.38;39.11
72961;BME280;61141;46.204;19.774;2023-04-22T08:18:09;100274.75;;;18.72;37.41
72961;BME280;61141;46.204;19.774;2023-04-22T08:21:12;100307.28;;;18.91;36.12
72961;BME280;61141;46.204;19.774;2023-04-22T08:24:16;100311.22;;;18.70;36.28
72961;BME280;61141;46.204;19.774;2023-04-22T08:27:21;100302.41;;;19.15;37.26
72961;BME280;61141;46.204;19.774;2023-04-22T08:30:24;100303.41;;;19.44;37.31
72961;BME280;61141;46.204;19.774;2023-04-22T08:33:27;100313.97;;;19.69;35.29
72961;BME280;61141;46.204;19.774;2023-04-22T08:36:31;100308.78;;;19.71;34.03
72961;BME280;61141;46.204;19.774;2023-04-22T08:39:34;100310.47;;;19.49;34.58
72961;BME280;61141;46.204;19.774;2023-04-22T08:42:37;100311.16;;;19.53;33.95
72961;BME280;61141;46.204;19.774;2023-04-22T08:45:40;100312.41;;;19.68;34.57
72961;BME280;61141;46.204;19.774;2023-04-22T08:48:45;100301.97;;;19.72;33.69
72961;BME280;61141;46.204;19.774;2023-04-22T08:51:49;100306.66;;;19.75;33.39
72961;BME280;61141;46.204;19.774;2023-04-22T08:54:52;100304.00;;;19.71;32.70
72961;BME280;61141;46.204;19.774;2023-04-22T08:57:54;100310.09;;;20.15;33.28
72961;BME280;61141;46.204;19.774;2023-04-22T09:00:58;100305.50;;;20.40;32.84
72961;BME280;61141;46.204;19.774;2023-04-22T09:04:05;100315.13;;;20.68;33.25
72961;BME280;61141;46.204;19.774;2023-04-22T09:07:09;100313.66;;;20.47;31.33
72961;BME280;61141;46.204;19.774;2023-04-22T09:10:12;100317.00;;;20.71;31.80
72961;BME280;61141;46.204;19.774;2023-04-22T09:13:15;100309.19;;;20.95;31.49
72961;BME280;61141;46.204;19.774;2023-04-22T09:16:19;100316.59;;;20.85;30.83
72961;BME280;61141;46.204;19.774;2023-04-22T09:19:23;100309.03;;;20.86;30.52
72961;BME280;61141;46.204;19.774;2023-04-22T09:22:27;100312.09;;;20.46;27.37
72961;BME280;61141;46.204;19.774;2023-04-22T09:25:33;100300.91;;;20.79;26.67
72961;BME280;61141;46.204;19.774;2023-04-22T09:28:48;100306.44;;;21.36;27.79
72961;BME280;61141;46.204;19.774;2023-04-22T09:31:51;100308.31;;;20.98;26.26
72961;BME280;61141;46.204;19.774;2023-04-22T09:34:54;100306.84;;;20.93;26.38
72961;BME280;61141;46.204;19.774;2023-04-22T09:37:59;100306.94;;;20.90;26.01
72961;BME280;61141;46.204;19.774;2023-04-22T09:41:08;100317.97;;;21.10;26.41
72961;BME280;61141;46.204;19.774;2023-04-22T09:44:16;100298.00;;;20.82;26.73
72961;BME280;61141;46.204;19.774;2023-04-22T09:47:21;100303.72;;;20.91;27.07
72961;BME280;61141;46.204;19.774;2023-04-22T09:50:28;100289.16;;;21.29;27.37
72961;BME280;61141;46.204;19.774;2023-04-22T09:53:35;100296.16;;;21.04;26.16
72961;BME280;61141;46.204;19.774;2023-04-22T09:56:47;100293.25;;;21.24;26.66
72961;BME280;61141;46.204;19.774;2023-04-22T09:59:50;100288.09;;;21.10;25.89
72961;BME280;61141;46.204;19.774;2023-04-22T10:02:54;100282.13;;;21.75;26.36
72961;BME280;61141;46.204;19.774;2023-04-22T10:05:58;100283.03;;;21.72;26.47
72961;BME280;61141;46.204;19.774;2023-04-22T10:09:01;100289.50;;;21.68;25.26
72961;BME280;61141;46.204;19.774;2023-04-22T10:12:04;100281.72;;;21.89;25.55
72961;BME280;61141;46.204;19.774;2023-04-22T10:15:07;100280.03;;;21.66;26.82
72961;BME280;61141;46.204;19.774;2023-04-22T10:18:21;100274.50;;;21.12;25.78
72961;BME280;61141;46.204;19.774;2023-04-22T10:21:29;100268.41;;;21.30;26.91
72961;BME280;61141;46.204;19.774;2023-04-22T10:24:35;100267.75;;;21.26;27.41
72961;BME280;61141;46.204;19.774;2023-04-22T10:27:39;100265.69;;;21.14;27.14
72961;BME280;61141;46.204;19.774;2023-04-22T10:30:42;100268.06;;;21.65;26.49
72961;BME280;61141;46.204;19.774;2023-04-22T10:33:45;100268.97;;;21.62;25.29
72961;BME280;61141;46.204;19.774;2023-04-22T10:37:00;100263.72;;;22.02;25.80
72961;BME280;61141;46.204;19.774;2023-04-22T10:43:12;100265.88;;;21.06;26.84
72961;BME280;61141;46.204;19.774;2023-04-22T10:49:34;100259.47;;;20.93;27.64
72961;BME280;61141;46.204;19.774;2023-04-22T10:52:38;100264.09;;;21.00;26.55
72961;BME280;61141;46.204;19.774;2023-04-22T10:55:49;100246.00;;;20.92;27.55
72961;BME280;61141;46.204;19.774;2023-04-22T10:58:55;100267.87;;;22.45;25.26
72961;BME280;61141;46.204;19.774;2023-04-22T11:02:04;100259.28;;;21.67;25.57
72961;BME280;61141;46.204;19.774;2023-04-22T11:05:25;100258.84;;;21.94;25.82
72961;BME280;61141;46.204;19.774;2023-04-22T11:08:29;100256.47;;;21.29;26.42
72961;BME280;61141;46.204;19.774;2023-04-22T11:11:32;100254.69;;;21.35;25.40
72961;BME280;61141;46.204;19.774;2023-04-22T11:14:35;100236.72;;;21.74;25.41
72961;BME280;61141;46.204;19.774;2023-04-22T11:17:41;100251.03;;;21.51;27.30
72961;BME280;61141;46.204;19.774;2023-04-22T11:20:44;100255.59;;;21.57;26.62
72961;BME280;61141;46.204;19.774;2023-04-22T11:23:50;100245.13;;;21.36;25.96
72961;BME280;61141;46.204;19.774;2023-04-22T11:26:54;100259.62;;;21.94;25.48
72961;BME280;61141;46.204;19.774;2023-04-22T11:30:10;100248.09;;;22.05;26.38
72961;BME280;61141;46.204;19.774;2023-04-22T11:33:14;100261.19;;;22.42;25.76
72961;BME280;61141;46.204;19.774;2023-04-22T11:36:21;100259.34;;;23.04;24.73
72961;BME280;61141;46.204;19.774;2023-04-22T11:39:34;100249.66;;;22.74;24.39
72961;BME280;61141;46.204;19.774;2023-04-22T11:42:37;100254.47;;;23.48;23.24
72961;BME280;61141;46.204;19.774;2023-04-22T11:45:40;100241.00;;;23.34;23.44
72961;BME280;61141;46.204;19.774;2023-04-22T11:48:42;100243.09;;;23.43;24.21
72961;BME280;61141;46.204;19.774;2023-04-22T11:51:55;100248.03;;;22.30;25.01
72961;BME280;61141;46.204;19.774;2023-04-22T11:54:58;100256.28;;;21.87;25.65
72961;BME280;61141;46.204;19.774;2023-04-22T11:58:06;100257.53;;;21.06;26.94
72961;BME280;61141;46.204;19.774;2023-04-22T12:01:11;100267.41;;;21.36;27.06
72961;BME280;61141;46.204;19.774;2023-04-22T12:04:15;100250.47;;;21.18;27.14
72961;BME280;61141;46.204;19.774;2023-04-22T12:07:18;100253.56;;;21.20;26.47
72961;BME280;61141;46.204;19.774;2023-04-22T12:10:22;100250.66;;;21.24;27.79
72961;BME280;61141;46.204;19.774;2023-04-22T12:13:28;100243.34;;;21.42;27.13
72961;BME280;61141;46.204;19.774;2023-04-22T12:16:41;100249.66;;;22.06;27.46
72961;BME280;61141;46.204;19.774;2023-04-22T12:19:47;100238.19;;;22.72;27.35
72961;BME280;61141;46.204;19.774;2023-04-22T12:22:51;100229.31;;;22.96;26.96
72961;BME280;61141;46.204;19.774;2023-04-22T12:25:54;100231.59;;;22.32;26.06
72961;BME280;61141;46.204;19.774;2023-04-22T12:28:59;100229.50;;;22.23;25.90
72961;BME280;61141;46.204;19.774;2023-04-22T12:32:01;100225.62;;;22.21;26.04
72961;BME280;61141;46.204;19.774;2023-04-22T12:35:05;100215.50;;;22.92;24.94
72961;BME280;61141;46.204;19.774;2023-04-22T12:38:09;100227.72;;;22.64;26.14
72961;BME280;61141;46.204;19.774;2023-04-22T12:41:12;100228.16;;;23.06;26.07
72961;BME280;61141;46.204;19.774;2023-04-22T12:44:17;100217.66;;;22.54;26.63
72961;BME280;61141;46.204;19.774;2023-04-22T12:47:20;100222.41;;;22.10;27.23
72961;BME280;61141;46.204;19.774;2023-04-22T12:50:23;100217.69;;;21.47;26.26
72961;BME280;61141;46.204;19.774;2023-04-22T12:53:26;100220.78;;;21.87;26.96
72961;BME280;61141;46.204;19.774;2023-04-22T12:56:29;100210.53;;;21.72;27.56
72961;BME280;61141;46.204;19.774;2023-04-22T12:59:32;100215.03;;;21.31;27.27
72961;BME280;61141;46.204;19.774;2023-04-22T13:02:35;100209.53;;;21.40;28.14
72961;BME280;61141;46.204;19.774;2023-04-22T13:05:38;100205.09;;;21.55;28.18
72961;BME280;61141;46.204;19.774;2023-04-22T13:08:41;100209.53;;;21.28;29.33
72961;BME280;61141;46.204;19.774;2023-04-22T13:11:44;100192.13;;;21.49;28.20
72961;BME280;61141;46.204;19.774;2023-04-22T13:14:47;100207.22;;;21.26;27.41
72961;BME280;61141;46.204;19.774;2023-04-22T13:17:49;100186.25;;;21.34;28.49
72961;BME280;61141;46.204;19.774;2023-04-22T13:20:53;100200.72;;;21.67;28.35
72961;BME280;61141;46.204;19.774;2023-04-22T13:23:59;100195.78;;;21.84;27.73
72961;BME280;61141;46.204;19.774;2023-04-22T13:27:02;100190.81;;;21.53;27.18
72961;BME280;61141;46.204;19.774;2023-04-22T13:30:06;100195.59;;;21.65;27.84
72961;BME280;61141;46.204;19.774;2023-04-22T13:33:09;100189.03;;;21.47;27.04
72961;BME280;61141;46.204;19.774;2023-04-22T13:36:12;100184.25;;;21.22;28.55
72961;BME280;61141;46.204;19.774;2023-04-22T13:39:15;100188.69;;;21.20;28.02
72961;BME280;61141;46.204;19.774;2023-04-22T13:42:19;100193.56;;;21.03;27.68
72961;BME280;61141;46.204;19.774;2023-04-22T13:45:21;100195.25;;;21.13;28.30
72961;BME280;61141;46.204;19.774;2023-04-22T13:48:24;100180.34;;;21.32;27.92
72961;BME280;61141;46.204;19.774;2023-04-22T13:51:29;100199.09;;;21.32;27.14
72961;BME280;61141;46.204;19.774;2023-04-22T13:54:32;100197.28;;;21.50;27.55
72961;BME280;61141;46.204;19.774;2023-04-22T13:57:35;100189.56;;;21.54;27.87
72961;BME280;61141;46.204;19.774;2023-04-22T14:00:38;100182.00;;;21.67;26.58
72961;BME280;61141;46.204;19.774;2023-04-22T14:03:41;100191.38;;;22.42;26.19
72961;BME280;61141;46.204;19.774;2023-04-22T14:06:44;100174.28;;;22.62;25.77
72961;BME280;61141;46.204;19.774;2023-04-22T14:09:47;100184.66;;;23.05;25.59
72961;BME280;61141;46.204;19.774;2023-04-22T14:12:50;100186.56;;;23.38;25.45
72961;BME280;61141;46.204;19.774;2023-04-22T14:15:53;100183.53;;;22.71;25.33
72961;BME280;61141;46.204;19.774;2023-04-22T14:18:56;100185.69;;;22.89;25.69
72961;BME280;61141;46.204;19.774;2023-04-22T14:22:00;100190.72;;;22.60;27.03
72961;BME280;61141;46.204;19.774;2023-04-22T14:25:02;100190.81;;;22.47;25.90
72961;BME280;61141;46.204;19.774;2023-04-22T14:28:06;100186.41;;;22.03;26.07
72961;BME280;61141;46.204;19.774;2023-04-22T14:31:08;100191.25;;;22.46;26.81
72961;BME280;61141;46.204;19.774;2023-04-22T14:34:12;100196.59;;;22.18;26.57
72961;BME280;61141;46.204;19.774;2023-04-22T14:37:14;100190.50;;;22.11;26.24
72961;BME280;61141;46.204;19.774;2023-04-22T14:40:17;100191.47;;;21.32;27.92
72961;BME280;61141;46.204;19.774;2023-04-22T14:43:21;100188.81;;;21.16;27.51
72961;BME280;61141;46.204;19.774;2023-04-22T14:46:24;100188.53;;;20.98;28.00
72961;BME280;61141;46.204;19.774;2023-04-22T14:49:27;100185.38;;;20.71;27.69
72961;BME280;61141;46.204;19.774;2023-04-22T14:52:30;100178.94;;;20.74;27.71
72961;BME280;61141;46.204;19.774;2023-04-22T14:55:33;100184.28;;;20.93;28.37
72961;BME280;61141;46.204;19.774;2023-04-22T14:58:37;100164.09;;;20.77;28.60
72961;BME280;61141;46.204;19.774;2023-04-22T15:01:40;100180.38;;;20.66;27.84
72961;BME280;61141;46.204;19.774;2023-04-22T15:04:44;100169.63;;;20.52;28.41
72961;BME280;61141;46.204;19.774;2023-04-22T15:07:47;100178.78;;;20.65;28.62
72961;BME280;61141;46.204;19.774;2023-04-22T15:10:51;100185.50;;;20.80;28.38
72961;BME280;61141;46.204;19.774;2023-04-22T15:13:53;100179.34;;;21.26;27.92
72961;BME280;61141;46.204;19.774;2023-04-22T15:16:56;100163.28;;;21.30;27.62
72961;BME280;61141;46.204;19.774;2023-04-22T15:19:59;100189.13;;;21.68;28.72
72961;BME280;61141;46.204;19.774;2023-04-22T15:23:08;100177.81;;;21.85;27.38
72961;BME280;61141;46.204;19.774;2023-04-22T15:26:11;100181.44;;;21.47;27.68
72961;BME280;61141;46.204;19.774;2023-04-22T15:29:14;100177.91;;;21.34;27.91
72961;BME280;61141;46.204;19.774;2023-04-22T15:32:17;100177.66;;;21.16;27.47
72961;BME280;61141;46.204;19.774;2023-04-22T15:35:21;100174.78;;;21.20;27.07
72961;BME280;61141;46.204;19.774;2023-04-22T15:38:24;100173.78;;;21.26;26.94
72961;BME280;61141;46.204;19.774;2023-04-22T15:41:27;100172.22;;;21.25;27.08
72961;BME280;61141;46.204;19.774;2023-04-22T15:44:31;100182.66;;;21.46;27.94
72961;BME280;61141;46.204;19.774;2023-04-22T15:47:34;100163.25;;;21.55;28.45
72961;BME280;61141;46.204;19.774;2023-04-22T15:50:37;100170.94;;;21.51;27.72
72961;BME280;61141;46.204;19.774;2023-04-22T15:53:42;100170.72;;;21.58;27.76
72961;BME280;61141;46.204;19.774;2023-04-22T15:56:46;100181.88;;;21.46;28.43
72961;BME280;61141;46.204;19.774;2023-04-22T15:59:49;100180.78;;;21.43;29.06